Time;durP1;ratioP1;P1;durP2;ratioP2;P2;SDS_P1;SDS_P2;PMS_P1;PMS_P2;Temp;Humidity;BMP_temperature;BMP_pressure;BME280_temperature;BME280_humidity;BME280_pressure;Samples;Min_cycle;Max_cycle;Signal;HPM_P1;HPM_P2
2024/01/27 00:00:21;;;;;;;0.93;0.23;;;;;;;;;;5055485;28;20197;-78
2024/01/27 00:02:47;;;;;;;0.30;0.20;;;;;;;;;;5032256;28;20208;-80
2024/01/27 00:05:14;;;;;;;0.20;0.20;;;;;;;;;;5058415;28;20255;-80
2024/01/27 00:07:41;;;;;;;0.47;0.30;;;;;;;;;;5059281;28;20198;-79
2024/01/27 00:10:09;;;;;;;0.53;0.30;;;;;;;;;;5058057;28;20220;-80
2024/01/27 00:12:36;;;;;;;0.33;0.13;;;;;;;;;;5057909;28;20190;-80
2024/01/27 00:15:03;;;;;;;0.83;0.30;;;;;;;;;;5040084;28;20209;-82
2024/01/27 00:17:32;;;;;;;0.97;0.20;;;;;;;;;;5054084;28;20192;-81
2024/01/27 00:19:59;;;;;;;0.47;0.30;;;;;;;;;;5030461;28;20464;-81
2024/01/27 00:22:27;;;;;;;1.33;0.40;;;;;;;;;;5002015;28;20183;-79
2024/01/27 00:24:56;;;;;;;0.47;0.30;;;;;;;;;;5060067;28;20232;-81
2024/01/27 00:27:26;;;;;;;0.33;0.30;;;;;;;;;;5038958;28;20251;-80
2024/01/27 00:29:57;;;;;;;0.55;0.30;;;;;;;;;;5053112;28;20436;-80
2024/01/27 00:32:23;;;;;;;0.40;0.20;;;;;;;;;;5044764;28;20439;-80
2024/01/27 00:34:52;;;;;;;1.00;0.30;;;;;;;;;;5053929;28;20276;-79
2024/01/27 00:37:22;;;;;;;0.30;0.30;;;;;;;;;;5054142;28;20255;-79
2024/01/27 00:39:49;;;;;;;0.60;0.20;;;;;;;;;;5054588;28;20205;-81
2024/01/27 00:42:23;;;;;;;0.30;0.30;;;;;;;;;;5053947;28;20251;-80
2024/01/27 00:44:52;;;;;;;1.37;0.20;;;;;;;;;;5054291;28;20201;-80
2024/01/27 00:47:21;;;;;;;1.33;0.40;;;;;;;;;;5050820;28;20197;-79
2024/01/27 00:49:48;;;;;;;0.77;0.30;;;;;;;;;;5051098;28;20257;-81
2024/01/27 00:52:18;;;;;;;0.67;0.30;;;;;;;;;;5052833;28;20295;-80
2024/01/27 00:54:46;;;;;;;0.50;0.47;;;;;;;;;;5035802;28;20212;-79
2024/01/27 00:57:25;;;;;;;0.70;0.40;;;;;;;;;;5053556;28;20204;-82
2024/01/27 00:59:52;;;;;;;0.47;0.37;;;;;;;;;;5034978;28;20201;-82
2024/01/27 01:02:22;;;;;;;0.57;0.40;;;;;;;;;;5052991;28;20213;-80
2024/01/27 01:04:50;;;;;;;0.90;0.33;;;;;;;;;;5059718;28;20233;-81
2024/01/27 01:07:24;;;;;;;0.83;0.50;;;;;;;;;;5028411;28;20194;-82
2024/01/27 01:09:53;;;;;;;1.00;0.40;;;;;;;;;;5020092;28;20255;-81
2024/01/27 01:12:20;;;;;;;0.50;0.43;;;;;;;;;;5053057;28;20198;-80
2024/01/27 01:14:47;;;;;;;0.90;0.40;;;;;;;;;;5038792;28;20428;-80
2024/01/27 01:17:14;;;;;;;0.83;0.40;;;;;;;;;;5048596;28;20281;-82
2024/01/27 01:19:41;;;;;;;0.93;0.50;;;;;;;;;;5048947;28;21399;-82
2024/01/27 01:22:10;;;;;;;1.00;0.67;;;;;;;;;;5047880;28;20197;-78
2024/01/27 01:24:40;;;;;;;1.17;0.70;;;;;;;;;;5038977;28;20200;-82
2024/01/27 01:27:07;;;;;;;0.73;0.50;;;;;;;;;;5046984;28;20193;-81
2024/01/27 01:29:36;;;;;;;0.50;0.40;;;;;;;;;;5051834;28;20279;-80
2024/01/27 01:32:05;;;;;;;1.07;0.50;;;;;;;;;;5041768;28;20281;-82
2024/01/27 01:34:35;;;;;;;1.37;0.60;;;;;;;;;;5053328;28;20281;-81
2024/01/27 01:37:02;;;;;;;0.97;0.60;;;;;;;;;;5039061;28;20220;-81
2024/01/27 01:39:30;;;;;;;2.20;0.60;;;;;;;;;;5052168;28;20576;-79
2024/01/27 01:41:58;;;;;;;1.50;0.60;;;;;;;;;;5051516;28;20194;-80
2024/01/27 01:44:29;;;;;;;1.60;0.50;;;;;;;;;;5053971;28;20196;-79
2024/01/27 01:46:56;;;;;;;1.60;0.70;;;;;;;;;;5031804;28;20196;-79
2024/01/27 01:49:22;;;;;;;2.60;0.60;;;;;;;;;;5045346;28;20209;-80
2024/01/27 01:51:49;;;;;;;1.60;0.67;;;;;;;;;;5031368;28;20261;-82
2024/01/27 01:54:16;;;;;;;2.67;0.60;;;;;;;;;;5051664;28;20749;-81
2024/01/27 01:56:45;;;;;;;2.03;0.63;;;;;;;;;;5059521;28;20233;-80
2024/01/27 01:59:11;;;;;;;1.83;0.77;;;;;;;;;;5033667;28;20263;-81
2024/01/27 02:01:40;;;;;;;0.97;0.50;;;;;;;;;;5033819;28;20271;-77
2024/01/27 02:04:11;;;;;;;1.07;0.50;;;;;;;;;;5051398;28;20193;-82
2024/01/27 02:06:40;;;;;;;0.83;0.63;;;;;;;;;;5051340;28;20247;-79
2024/01/27 02:09:15;;;;;;;1.70;0.70;;;;;;;;;;5051237;28;20216;-80
2024/01/27 02:11:42;;;;;;;1.13;0.70;;;;;;;;;;5051842;28;20316;-80
2024/01/27 02:14:12;;;;;;;2.00;0.60;;;;;;;;;;5034966;28;20213;-79
2024/01/27 02:16:46;;;;;;;1.37;0.60;;;;;;;;;;5033398;28;20792;-79
2024/01/27 02:19:19;;;;;;;0.93;0.50;;;;;;;;;;5036075;28;20205;-80
2024/01/27 02:21:46;;;;;;;1.93;0.63;;;;;;;;;;5051232;28;20212;-81
2024/01/27 02:24:15;;;;;;;1.27;0.80;;;;;;;;;;5050911;28;20197;-80
2024/01/27 02:26:42;;;;;;;1.17;0.60;;;;;;;;;;5051225;28;20189;-81
2024/01/27 02:29:11;;;;;;;1.43;0.77;;;;;;;;;;5051344;28;20201;-81
2024/01/27 02:31:38;;;;;;;1.43;0.80;;;;;;;;;;5032943;28;20202;-80
2024/01/27 02:34:08;;;;;;;1.37;0.60;;;;;;;;;;5046969;28;20204;-81
2024/01/27 02:36:40;;;;;;;1.33;0.80;;;;;;;;;;5050839;28;20208;-82
2024/01/27 02:39:06;;;;;;;1.33;0.80;;;;;;;;;;5050271;28;20229;-83
2024/01/27 02:41:40;;;;;;;1.43;0.63;;;;;;;;;;5046783;28;20203;-81
2024/01/27 02:44:12;;;;;;;1.60;0.83;;;;;;;;;;5046352;28;20213;-82
2024/01/27 02:46:43;;;;;;;1.70;0.80;;;;;;;;;;5051077;28;20612;-84
2024/01/27 02:49:21;;;;;;;2.27;0.80;;;;;;;;;;5050622;28;20186;-80
2024/01/27 02:51:47;;;;;;;1.70;0.90;;;;;;;;;;5058747;28;20259;-80
2024/01/27 02:54:20;;;;;;;1.57;0.70;;;;;;;;;;5046446;28;20240;-80
2024/01/27 02:56:47;;;;;;;2.47;0.80;;;;;;;;;;5050591;28;20248;-81
2024/01/27 02:59:16;;;;;;;1.43;0.87;;;;;;;;;;5052641;28;20201;-82
2024/01/27 03:01:50;;;;;;;2.03;0.80;;;;;;;;;;5051224;28;20201;-82
2024/01/27 03:04:16;;;;;;;1.80;0.70;;;;;;;;;;5050759;28;20683;-80
2024/01/27 03:06:50;;;;;;;2.47;0.83;;;;;;;;;;5050946;28;20196;-80
2024/01/27 03:09:18;;;;;;;2.10;0.93;;;;;;;;;;5035541;28;20188;-80
2024/01/27 03:11:45;;;;;;;1.33;0.87;;;;;;;;;;5035182;28;20189;-81
2024/01/27 03:14:12;;;;;;;2.37;1.17;;;;;;;;;;5037526;28;20258;-82
2024/01/27 03:16:44;;;;;;;1.67;1.00;;;;;;;;;;5046900;28;20481;-79
2024/01/27 03:19:11;;;;;;;1.07;0.97;;;;;;;;;;5058454;28;20467;-81
2024/01/27 03:21:38;;;;;;;1.67;0.90;;;;;;;;;;5052621;28;20229;-80
2024/01/27 03:24:09;;;;;;;2.80;1.20;;;;;;;;;;5053264;28;20193;-81
2024/01/27 03:26:38;;;;;;;2.90;1.10;;;;;;;;;;5049677;28;20300;-80
2024/01/27 03:29:09;;;;;;;2.10;1.13;;;;;;;;;;5049926;28;20205;-80
2024/01/27 03:31:36;;;;;;;3.13;1.10;;;;;;;;;;5051808;28;20239;-78
2024/01/27 03:34:03;;;;;;;2.13;1.00;;;;;;;;;;5050394;28;20193;-80
2024/01/27 03:36:33;;;;;;;3.20;1.40;;;;;;;;;;5034426;28;20197;-80
2024/01/27 03:39:04;;;;;;;3.10;1.30;;;;;;;;;;5050735;28;20226;-81
2024/01/27 03:41:31;;;;;;;3.07;1.27;;;;;;;;;;5041735;28;20209;-81
2024/01/27 03:44:01;;;;;;;1.80;1.03;;;;;;;;;;5047691;28;20206;-79
2024/01/27 03:46:28;;;;;;;2.07;1.00;;;;;;;;;;5052524;28;20197;-80
2024/01/27 03:48:57;;;;;;;2.33;1.10;;;;;;;;;;5047394;28;20189;-80
2024/01/27 03:51:26;;;;;;;2.33;1.10;;;;;;;;;;5049488;28;20268;-81
2024/01/27 03:53:56;;;;;;;1.03;0.90;;;;;;;;;;5057048;28;20290;-79
2024/01/27 03:56:29;;;;;;;2.63;1.40;;;;;;;;;;5053719;28;20197;-79
2024/01/27 03:58:58;;;;;;;1.77;1.00;;;;;;;;;;5054106;28;20575;-81
2024/01/27 04:01:25;;;;;;;2.33;1.00;;;;;;;;;;5053665;28;20678;-80
2024/01/27 04:03:52;;;;;;;1.53;1.10;;;;;;;;;;5053569;28;20197;-82
2024/01/27 04:06:19;;;;;;;2.33;1.00;;;;;;;;;;5058593;28;20272;-79
2024/01/27 04:08:57;;;;;;;2.73;1.10;;;;;;;;;;5060131;28;20315;-80
2024/01/27 04:11:31;;;;;;;1.80;1.13;;;;;;;;;;5060450;28;20696;-81
2024/01/27 04:13:59;;;;;;;3.20;1.30;;;;;;;;;;5057473;28;20204;-80
2024/01/27 04:16:27;;;;;;;1.90;1.13;;;;;;;;;;5056882;28;20202;-81
2024/01/27 04:18:53;;;;;;;1.70;1.23;;;;;;;;;;5059370;28;20189;-80
2024/01/27 04:21:20;;;;;;;2.10;1.00;;;;;;;;;;5031829;28;20670;-79
2024/01/27 04:23:56;;;;;;;2.00;1.23;;;;;;;;;;5058891;28;20208;-81
2024/01/27 04:26:24;;;;;;;3.33;1.27;;;;;;;;;;5061631;28;20221;-83
2024/01/27 04:28:53;;;;;;;3.47;1.37;;;;;;;;;;5053020;28;20232;-80
2024/01/27 04:31:40;;;;;;;1.53;1.10;;;;;;;;;;5056775;28;20313;-80
2024/01/27 04:34:20;;;;;;;2.20;1.20;;;;;;;;;;5052863;28;20197;-80
2024/01/27 04:36:48;;;;;;;1.80;1.00;;;;;;;;;;5048707;28;20195;-82
2024/01/27 04:39:14;;;;;;;2.53;0.93;;;;;;;;;;5057407;28;20194;-80
2024/01/27 04:41:53;;;;;;;2.53;1.10;;;;;;;;;;5052209;28;20205;-79
2024/01/27 04:44:22;;;;;;;1.83;1.00;;;;;;;;;;5052266;28;20276;-81
2024/01/27 04:46:49;;;;;;;3.07;1.03;;;;;;;;;;5058609;28;20190;-81
2024/01/27 04:49:18;;;;;;;1.37;0.97;;;;;;;;;;5045067;28;20820;-82
2024/01/27 04:51:45;;;;;;;2.20;1.10;;;;;;;;;;5059356;28;20209;-80
2024/01/27 04:54:12;;;;;;;1.93;1.00;;;;;;;;;;5062108;28;20201;-82
2024/01/27 04:56:44;;;;;;;2.13;1.00;;;;;;;;;;5054696;28;20236;-81
2024/01/27 04:59:13;;;;;;;2.57;1.50;;;;;;;;;;5053025;28;20193;-81
2024/01/27 05:01:47;;;;;;;3.23;1.33;;;;;;;;;;5059433;28;20205;-82
2024/01/27 05:04:17;;;;;;;2.80;1.00;;;;;;;;;;5060414;28;20197;-79
2024/01/27 05:06:47;;;;;;;1.87;0.90;;;;;;;;;;5057274;28;20193;-80
2024/01/27 05:09:16;;;;;;;1.20;0.80;;;;;;;;;;5039825;28;20673;-79
2024/01/27 05:11:51;;;;;;;2.07;1.00;;;;;;;;;;5051942;28;20217;-82
2024/01/27 05:14:20;;;;;;;2.23;1.03;;;;;;;;;;5061697;28;20196;-80
2024/01/27 05:16:50;;;;;;;1.90;1.03;;;;;;;;;;5060588;28;20274;-79
2024/01/27 05:19:17;;;;;;;1.73;1.00;;;;;;;;;;5060538;28;20270;-82
2024/01/27 05:21:49;;;;;;;1.73;1.00;;;;;;;;;;5057238;28;20281;-79
2024/01/27 05:24:21;;;;;;;1.80;1.00;;;;;;;;;;5046973;28;20192;-82
2024/01/27 05:26:48;;;;;;;2.83;1.07;;;;;;;;;;5053934;28;20202;-79
2024/01/27 05:29:17;;;;;;;3.17;1.00;;;;;;;;;;5055763;28;20247;-80
2024/01/27 05:31:47;;;;;;;1.60;1.00;;;;;;;;;;5055113;28;20255;-80
2024/01/27 05:34:14;;;;;;;3.27;1.00;;;;;;;;;;5052183;28;20193;-78
2024/01/27 05:36:42;;;;;;;2.60;1.40;;;;;;;;;;5042956;28;20196;-79
2024/01/27 05:39:13;;;;;;;3.13;1.20;;;;;;;;;;5051522;28;20498;-79
2024/01/27 05:41:39;;;;;;;1.50;0.97;;;;;;;;;;5045790;28;20197;-78
2024/01/27 05:44:06;;;;;;;1.87;1.00;;;;;;;;;;5038881;28;20193;-81
2024/01/27 05:46:33;;;;;;;1.57;1.00;;;;;;;;;;5055409;28;20197;-80
2024/01/27 05:49:03;;;;;;;2.00;0.93;;;;;;;;;;5059682;28;20186;-81
2024/01/27 05:51:34;;;;;;;5.50;1.40;;;;;;;;;;5055110;28;20227;-79
2024/01/27 05:54:02;;;;;;;1.90;1.03;;;;;;;;;;5051551;28;20736;-79
2024/01/27 05:56:31;;;;;;;2.00;0.97;;;;;;;;;;5051146;28;20186;-80
2024/01/27 05:59:03;;;;;;;2.07;1.10;;;;;;;;;;5052444;28;20467;-80
2024/01/27 06:01:32;;;;;;;1.50;1.00;;;;;;;;;;5049099;28;20217;-81
2024/01/27 06:03:59;;;;;;;3.00;1.07;;;;;;;;;;5033155;28;20228;-80
2024/01/27 06:06:29;;;;;;;2.40;0.90;;;;;;;;;;5054918;28;20193;-80
2024/01/27 06:09:01;;;;;;;2.47;1.20;;;;;;;;;;5032822;28;20205;-80
2024/01/27 06:11:30;;;;;;;3.30;1.20;;;;;;;;;;5050805;28;20209;-80
2024/01/27 06:13:58;;;;;;;2.60;1.20;;;;;;;;;;5032324;28;20674;-81
2024/01/27 06:16:27;;;;;;;1.87;1.17;;;;;;;;;;5047827;28;20268;-80
2024/01/27 06:18:56;;;;;;;2.63;1.23;;;;;;;;;;5035942;28;20220;-82
2024/01/27 06:21:25;;;;;;;2.93;1.30;;;;;;;;;;5050464;28;20244;-80
2024/01/27 06:23:53;;;;;;;5.13;1.50;;;;;;;;;;5047937;28;20197;-79
2024/01/27 06:26:23;;;;;;;2.53;1.20;;;;;;;;;;5050702;28;20194;-81
2024/01/27 06:28:54;;;;;;;2.23;1.23;;;;;;;;;;5053232;28;20222;-78
2024/01/27 06:31:23;;;;;;;2.70;1.40;;;;;;;;;;5032375;28;20231;-79
2024/01/27 06:33:51;;;;;;;2.40;1.30;;;;;;;;;;5046036;28;20725;-80
2024/01/27 06:36:18;;;;;;;2.50;1.37;;;;;;;;;;5050379;28;20209;-82
2024/01/27 06:38:44;;;;;;;2.53;1.20;;;;;;;;;;5030064;28;20197;-78
2024/01/27 06:41:11;;;;;;;4.10;1.40;;;;;;;;;;5048234;28;20208;-84
2024/01/27 06:43:41;;;;;;;1.73;1.20;;;;;;;;;;5032712;28;20205;-79
2024/01/27 06:46:12;;;;;;;2.57;1.23;;;;;;;;;;5043360;28;20281;-80
2024/01/27 06:48:39;;;;;;;3.43;1.20;;;;;;;;;;5050016;28;20197;-82
2024/01/27 06:51:09;;;;;;;3.30;1.50;;;;;;;;;;5050408;28;20259;-80
2024/01/27 06:53:36;;;;;;;3.47;1.23;;;;;;;;;;5036253;28;20248;-81
2024/01/27 06:56:03;;;;;;;3.40;1.33;;;;;;;;;;5031765;28;20197;-82
2024/01/27 06:58:30;;;;;;;1.90;1.20;;;;;;;;;;5032453;28;20186;-80
2024/01/27 07:00:58;;;;;;;2.53;1.20;;;;;;;;;;5036683;28;20198;-79
2024/01/27 07:03:24;;;;;;;2.37;1.30;;;;;;;;;;5037399;28;20205;-79
2024/01/27 07:05:54;;;;;;;4.73;1.43;;;;;;;;;;5032725;28;20189;-80
2024/01/27 07:08:24;;;;;;;3.43;1.20;;;;;;;;;;5037293;28;20368;-81
2024/01/27 07:10:55;;;;;;;2.97;1.20;;;;;;;;;;5013131;28;20226;-80
2024/01/27 07:13:29;;;;;;;2.47;1.30;;;;;;;;;;5028949;28;20752;-80
2024/01/27 07:15:59;;;;;;;1.40;1.10;;;;;;;;;;5017318;28;20204;-80
2024/01/27 07:18:26;;;;;;;1.73;1.30;;;;;;;;;;5037639;28;20676;-79
2024/01/27 07:20:59;;;;;;;2.50;1.80;;;;;;;;;;5035694;28;20244;-80
2024/01/27 07:23:28;;;;;;;3.00;1.43;;;;;;;;;;5014385;28;20204;-80
2024/01/27 07:25:55;;;;;;;4.33;1.40;;;;;;;;;;5035642;28;20245;-80
2024/01/27 07:28:22;;;;;;;2.73;1.60;;;;;;;;;;5050185;28;20289;-79
2024/01/27 07:30:51;;;;;;;3.57;1.27;;;;;;;;;;5038896;28;20210;-78
2024/01/27 07:33:18;;;;;;;3.10;1.63;;;;;;;;;;5036942;28;20202;-79
2024/01/27 07:35:50;;;;;;;5.47;1.73;;;;;;;;;;5042643;28;20281;-78
2024/01/27 07:38:16;;;;;;;2.77;1.20;;;;;;;;;;5043825;28;20205;-80
2024/01/27 07:40:44;;;;;;;2.20;1.40;;;;;;;;;;5036510;28;20214;-81
2024/01/27 07:43:17;;;;;;;4.00;1.33;;;;;;;;;;5017046;28;21215;-79
2024/01/27 07:45:44;;;;;;;2.00;1.40;;;;;;;;;;5029069;28;20670;-83
2024/01/27 07:48:16;;;;;;;3.53;1.80;;;;;;;;;;5019072;28;20202;-79
2024/01/27 07:50:50;;;;;;;4.07;1.40;;;;;;;;;;5020534;28;20272;-80
2024/01/27 07:53:18;;;;;;;3.10;1.40;;;;;;;;;;5031773;28;20230;-79
2024/01/27 07:55:45;;;;;;;3.47;1.43;;;;;;;;;;5031337;28;20217;-79
2024/01/27 07:58:17;;;;;;;2.10;1.30;;;;;;;;;;5031375;28;20305;-84
2024/01/27 08:00:47;;;;;;;3.27;1.43;;;;;;;;;;5031613;28;20198;-80
2024/01/27 08:03:17;;;;;;;3.70;1.43;;;;;;;;;;5033207;28;20281;-81
2024/01/27 08:05:46;;;;;;;2.23;1.23;;;;;;;;;;5007092;28;20211;-82
2024/01/27 08:08:15;;;;;;;3.93;1.60;;;;;;;;;;5033713;28;20194;-82
2024/01/27 08:10:46;;;;;;;3.73;1.50;;;;;;;;;;5015408;28;20194;-80
2024/01/27 08:13:13;;;;;;;3.83;1.70;;;;;;;;;;5016164;28;20290;-81
2024/01/27 08:15:39;;;;;;;2.83;1.50;;;;;;;;;;5015581;28;20202;-81
2024/01/27 08:18:07;;;;;;;2.80;1.43;;;;;;;;;;5018383;28;20249;-85
2024/01/27 08:20:38;;;;;;;3.47;1.50;;;;;;;;;;5032343;28;20286;-83
2024/01/27 08:23:08;;;;;;;3.03;1.50;;;;;;;;;;5015379;28;20597;-80
2024/01/27 08:25:52;;;;;;;2.23;1.50;;;;;;;;;;5035631;28;20209;-81
2024/01/27 08:28:20;;;;;;;3.77;1.50;;;;;;;;;;5014988;28;20202;-81
2024/01/27 08:30:48;;;;;;;2.13;1.10;;;;;;;;;;5032449;28;20198;-83
2024/01/27 08:33:15;;;;;;;4.43;1.60;;;;;;;;;;5014911;28;20252;-81
2024/01/27 08:35:53;;;;;;;3.63;1.30;;;;;;;;;;5013319;28;20190;-81
2024/01/27 08:38:24;;;;;;;2.30;1.07;;;;;;;;;;5033335;28;20214;-79
2024/01/27 08:40:53;;;;;;;4.23;1.50;;;;;;;;;;5015354;28;20229;-81
2024/01/27 08:43:20;;;;;;;3.00;1.30;;;;;;;;;;5030820;28;20217;-81
2024/01/27 08:45:47;;;;;;;2.97;1.50;;;;;;;;;;5017041;28;20197;-80
2024/01/27 08:48:13;;;;;;;3.80;1.30;;;;;;;;;;5037389;28;20233;-82
2024/01/27 08:50:49;;;;;;;1.97;1.33;;;;;;;;;;5007312;28;20722;-82
2024/01/27 08:53:20;;;;;;;2.83;1.40;;;;;;;;;;5031306;28;20328;-82
2024/01/27 08:55:54;;;;;;;2.90;1.40;;;;;;;;;;5052907;28;20190;-79
2024/01/27 08:58:24;;;;;;;2.13;1.23;;;;;;;;;;5053401;28;20197;-79
2024/01/27 09:01:05;;;;;;;3.93;1.20;;;;;;;;;;5053174;28;20189;-81
2024/01/27 09:03:32;;;;;;;3.10;1.50;;;;;;;;;;5052479;28;20205;-80
2024/01/27 09:05:58;;;;;;;2.30;1.80;;;;;;;;;;5056125;28;20742;-82
2024/01/27 09:08:28;;;;;;;2.50;1.30;;;;;;;;;;5019693;28;20212;-79
2024/01/27 09:10:57;;;;;;;4.33;1.43;;;;;;;;;;5050643;28;20202;-79
2024/01/27 09:13:24;;;;;;;2.47;1.40;;;;;;;;;;5042372;28;20674;-81
2024/01/27 09:15:51;;;;;;;4.20;1.60;;;;;;;;;;5035341;28;20580;-78
2024/01/27 09:18:18;;;;;;;5.87;1.80;;;;;;;;;;5035609;28;20205;-80
2024/01/27 09:20:45;;;;;;;3.63;1.67;;;;;;;;;;5055625;28;20190;-80
2024/01/27 09:23:12;;;;;;;3.50;1.40;;;;;;;;;;5053335;28;20281;-80
2024/01/27 09:25:40;;;;;;;2.90;1.50;;;;;;;;;;5053572;28;20194;-83
2024/01/27 09:28:06;;;;;;;2.40;1.17;;;;;;;;;;5053014;28;20205;-80
2024/01/27 09:30:36;;;;;;;2.30;1.30;;;;;;;;;;5035686;28;20197;-79
2024/01/27 09:33:06;;;;;;;4.13;1.60;;;;;;;;;;5052980;28;20213;-77
2024/01/27 09:35:33;;;;;;;4.17;1.77;;;;;;;;;;5052784;28;20193;-79
2024/01/27 09:38:00;;;;;;;2.43;1.20;;;;;;;;;;5044717;28;20196;-81
2024/01/27 09:40:27;;;;;;;3.70;1.50;;;;;;;;;;5058212;28;20258;-80
2024/01/27 09:42:58;;;;;;;4.63;1.53;;;;;;;;;;5038202;28;20279;-79
2024/01/27 09:45:25;;;;;;;3.27;1.40;;;;;;;;;;5058284;28;20197;-78
2024/01/27 09:48:02;;;;;;;5.03;1.77;;;;;;;;;;5053289;28;20200;-79
2024/01/27 09:50:30;;;;;;;2.27;1.50;;;;;;;;;;5034431;28;20285;-79
2024/01/27 09:53:00;;;;;;;2.40;1.50;;;;;;;;;;5051100;28;20237;-80
2024/01/27 09:55:28;;;;;;;8.27;1.30;;;;;;;;;;5054506;28;20231;-78
2024/01/27 09:57:54;;;;;;;4.60;1.40;;;;;;;;;;5020058;28;20200;-79
2024/01/27 10:00:21;;;;;;;3.90;1.57;;;;;;;;;;5036189;28;20201;-81
2024/01/27 10:02:56;;;;;;;3.07;1.40;;;;;;;;;;5037364;28;20212;-80
2024/01/27 10:05:23;;;;;;;2.97;1.40;;;;;;;;;;5054293;28;20170;-82
2024/01/27 10:07:54;;;;;;;2.57;1.40;;;;;;;;;;5053925;28;20182;-82
2024/01/27 10:10:27;;;;;;;1.93;1.40;;;;;;;;;;5036016;28;20231;-79
2024/01/27 10:12:55;;;;;;;2.43;1.50;;;;;;;;;;5054035;28;20205;-79
2024/01/27 10:15:22;;;;;;;3.70;1.80;;;;;;;;;;5036297;28;20189;-78
2024/01/27 10:17:52;;;;;;;2.87;1.40;;;;;;;;;;5053786;28;20186;-78
2024/01/27 10:20:21;;;;;;;3.43;1.50;;;;;;;;;;5054437;28;20186;-80
2024/01/27 10:22:50;;;;;;;2.50;1.60;;;;;;;;;;5036408;28;20232;-79
2024/01/27 10:25:17;;;;;;;2.93;1.53;;;;;;;;;;5053794;28;20178;-80
2024/01/27 10:27:49;;;;;;;4.20;1.70;;;;;;;;;;5053741;28;20247;-80
2024/01/27 10:30:20;;;;;;;3.27;1.80;;;;;;;;;;5035867;28;20264;-79
2024/01/27 10:32:59;;;;;;;2.60;1.47;;;;;;;;;;5035722;28;20271;-81
2024/01/27 10:35:29;;;;;;;3.90;1.73;;;;;;;;;;5053980;28;20170;-78
2024/01/27 10:37:58;;;;;;;3.67;1.60;;;;;;;;;;5036622;28;20213;-79
2024/01/27 10:40:28;;;;;;;3.80;1.60;;;;;;;;;;5036812;28;20166;-81
2024/01/27 10:43:05;;;;;;;2.60;1.40;;;;;;;;;;5053607;28;20646;-80
2024/01/27 10:45:37;;;;;;;4.27;1.53;;;;;;;;;;5053848;28;20228;-81
2024/01/27 10:48:10;;;;;;;4.13;1.70;;;;;;;;;;5053451;28;20170;-79
2024/01/27 10:50:40;;;;;;;3.63;1.50;;;;;;;;;;5053448;28;20173;-79
2024/01/27 10:53:41;;;;;;;3.33;1.40;;;;;;;;;;5035721;28;20712;-80
2024/01/27 10:56:10;;;;;;;4.13;1.30;;;;;;;;;;5024209;28;20201;-79
2024/01/27 10:58:41;;;;;;;3.33;1.50;;;;;;;;;;5055896;28;20259;-78
2024/01/27 11:01:11;;;;;;;4.23;1.60;;;;;;;;;;5051597;28;20276;-80
2024/01/27 11:03:51;;;;;;;3.27;1.57;;;;;;;;;;5051408;28;20252;-79
2024/01/27 11:06:22;;;;;;;2.63;1.33;;;;;;;;;;5052107;28;20202;-81
2024/01/27 11:08:50;;;;;;;2.60;1.50;;;;;;;;;;5053857;28;20204;-81
2024/01/27 11:11:20;;;;;;;2.80;1.47;;;;;;;;;;5059898;28;20229;-78
2024/01/27 11:13:52;;;;;;;5.03;1.70;;;;;;;;;;5037326;28;20208;-79
2024/01/27 11:16:19;;;;;;;5.17;3.53;;;;;;;;;;5055477;28;20291;-80
2024/01/27 11:18:48;;;;;;;2.67;1.60;;;;;;;;;;5033514;28;20193;-80
2024/01/27 11:21:15;;;;;;;2.30;1.30;;;;;;;;;;5033769;28;20189;-80
2024/01/27 11:23:44;;;;;;;2.83;1.33;;;;;;;;;;5059612;28;20200;-80
2024/01/27 11:26:17;;;;;;;3.50;1.30;;;;;;;;;;5051433;28;20194;-79
2024/01/27 11:28:49;;;;;;;2.20;1.30;;;;;;;;;;5055078;28;20191;-80
2024/01/27 11:31:17;;;;;;;3.40;1.43;;;;;;;;;;5050324;28;20328;-79
2024/01/27 11:33:51;;;;;;;3.57;1.57;;;;;;;;;;5034923;28;20221;-80
2024/01/27 11:36:22;;;;;;;2.63;1.30;;;;;;;;;;5031483;28;20209;-80
2024/01/27 11:38:56;;;;;;;3.47;1.50;;;;;;;;;;5051371;28;20194;-80
2024/01/27 11:41:27;;;;;;;3.70;1.57;;;;;;;;;;5021993;28;20297;-79
2024/01/27 11:43:57;;;;;;;3.30;1.30;;;;;;;;;;5036615;28;20293;-80
2024/01/27 11:46:33;;;;;;;2.97;1.30;;;;;;;;;;5051800;28;20194;-80
2024/01/27 11:49:19;;;;;;;3.17;1.60;;;;;;;;;;5051313;28;20269;-78
2024/01/27 11:51:50;;;;;;;4.20;1.53;;;;;;;;;;5049480;28;20329;-81
2024/01/27 11:54:17;;;;;;;2.23;1.20;;;;;;;;;;5036234;28;20209;-79
2024/01/27 11:56:46;;;;;;;2.20;1.40;;;;;;;;;;5051058;28;20239;-79
2024/01/27 11:59:21;;;;;;;3.33;1.40;;;;;;;;;;5041987;28;20693;-79
2024/01/27 12:01:47;;;;;;;4.57;1.60;;;;;;;;;;5051345;28;20194;-80
2024/01/27 12:04:14;;;;;;;4.17;1.80;;;;;;;;;;5049158;28;20268;-81
2024/01/27 12:06:45;;;;;;;4.13;1.53;;;;;;;;;;5039808;28;20186;-79
2024/01/27 12:09:12;;;;;;;3.37;1.37;;;;;;;;;;5050994;28;20248;-79
2024/01/27 12:11:41;;;;;;;3.97;1.40;;;;;;;;;;5049835;28;20264;-79
2024/01/27 12:14:08;;;;;;;5.53;1.50;;;;;;;;;;5036240;28;20214;-78
2024/01/27 12:16:38;;;;;;;2.87;1.50;;;;;;;;;;5053831;28;20390;-81
2024/01/27 12:19:09;;;;;;;3.60;1.53;;;;;;;;;;5033849;28;20273;-81
2024/01/27 12:21:37;;;;;;;3.10;1.67;;;;;;;;;;5037367;28;20200;-80
2024/01/27 12:24:03;;;;;;;1.60;1.33;;;;;;;;;;5054987;28;20244;-80
2024/01/27 12:26:41;;;;;;;2.27;1.30;;;;;;;;;;5055040;28;20193;-78
2024/01/27 12:29:08;;;;;;;4.03;1.40;;;;;;;;;;5046876;28;20205;-80
2024/01/27 12:31:39;;;;;;;5.67;1.60;;;;;;;;;;5060505;28;20212;-80
2024/01/27 12:34:10;;;;;;;3.53;1.30;;;;;;;;;;5056712;28;20214;-79
2024/01/27 12:36:42;;;;;;;3.27;1.20;;;;;;;;;;5053528;28;20209;-79
2024/01/27 12:39:15;;;;;;;3.07;1.50;;;;;;;;;;5036403;28;20305;-77
2024/01/27 12:41:41;;;;;;;3.63;1.40;;;;;;;;;;5036857;28;20192;-78
2024/01/27 12:44:17;;;;;;;3.93;1.40;;;;;;;;;;5054442;28;20203;-81
2024/01/27 12:46:44;;;;;;;2.90;1.20;;;;;;;;;;5037458;28;20193;-79
2024/01/27 12:49:13;;;;;;;3.50;1.50;;;;;;;;;;5054077;28;20193;-83
2024/01/27 12:51:40;;;;;;;2.63;1.13;;;;;;;;;;5037330;28;20201;-79
2024/01/27 12:54:09;;;;;;;3.27;1.40;;;;;;;;;;5041510;28;20225;-80
2024/01/27 12:56:36;;;;;;;4.67;1.40;;;;;;;;;;5056598;28;20198;-81
2024/01/27 12:59:05;;;;;;;2.53;1.30;;;;;;;;;;5052857;28;20237;-79
2024/01/27 13:01:36;;;;;;;2.80;1.57;;;;;;;;;;5050058;28;20213;-82
2024/01/27 13:04:04;;;;;;;3.13;1.30;;;;;;;;;;5039060;28;20288;-78
2024/01/27 13:06:36;;;;;;;3.53;1.40;;;;;;;;;;5052786;28;20672;-81
2024/01/27 13:09:06;;;;;;;2.47;1.17;;;;;;;;;;5052873;28;20291;-81
2024/01/27 13:11:36;;;;;;;3.67;1.30;;;;;;;;;;5053288;28;20192;-79
2024/01/27 13:14:06;;;;;;;2.57;1.30;;;;;;;;;;5052702;28;20225;-81
2024/01/27 13:16:33;;;;;;;2.17;1.23;;;;;;;;;;5035510;28;20672;-78
2024/01/27 13:19:02;;;;;;;2.80;1.20;;;;;;;;;;5055669;28;20263;-80
2024/01/27 13:21:31;;;;;;;2.37;1.10;;;;;;;;;;5035335;28;20208;-78
2024/01/27 13:24:03;;;;;;;4.53;1.30;;;;;;;;;;5043595;28;20291;-80
2024/01/27 13:26:32;;;;;;;2.27;1.13;;;;;;;;;;5052826;28;20272;-79
2024/01/27 13:29:01;;;;;;;1.50;0.90;;;;;;;;;;5051820;28;20198;-79
2024/01/27 13:31:30;;;;;;;3.33;1.13;;;;;;;;;;5051441;28;20194;-80
2024/01/27 13:33:59;;;;;;;2.67;1.10;;;;;;;;;;5050182;28;20206;-81
2024/01/27 13:36:26;;;;;;;2.90;1.00;;;;;;;;;;5051894;28;20188;-80
2024/01/27 13:38:53;;;;;;;2.00;1.10;;;;;;;;;;5056730;28;20222;-83
2024/01/27 13:41:19;;;;;;;4.63;1.30;;;;;;;;;;5066018;28;20199;-80
2024/01/27 13:43:46;;;;;;;3.03;1.10;;;;;;;;;;5052515;28;20190;-82
2024/01/27 13:46:13;;;;;;;2.90;1.10;;;;;;;;;;5008730;28;20198;-80
2024/01/27 13:48:40;;;;;;;2.83;1.30;;;;;;;;;;5057643;28;20193;-80
2024/01/27 13:51:07;;;;;;;2.70;1.13;;;;;;;;;;5051423;28;20280;-80
2024/01/27 13:53:36;;;;;;;1.83;1.03;;;;;;;;;;5041411;28;20300;-81
2024/01/27 13:56:13;;;;;;;2.07;1.20;;;;;;;;;;5034963;28;20201;-80
2024/01/27 13:58:43;;;;;;;3.27;1.10;;;;;;;;;;5023318;28;20232;-79
2024/01/27 14:01:13;;;;;;;4.03;1.50;;;;;;;;;;5015565;28;20218;-81
2024/01/27 14:03:42;;;;;;;2.63;1.30;;;;;;;;;;5031670;28;20195;-81
2024/01/27 14:06:12;;;;;;;1.83;1.10;;;;;;;;;;5031855;28;20207;-79
2024/01/27 14:08:40;;;;;;;2.80;1.27;;;;;;;;;;5031457;28;20190;-79
2024/01/27 14:11:10;;;;;;;2.37;1.07;;;;;;;;;;5031750;28;20198;-81
2024/01/27 14:13:43;;;;;;;4.40;1.30;;;;;;;;;;5016869;28;20214;-81
2024/01/27 14:16:12;;;;;;;4.83;1.13;;;;;;;;;;5031824;28;20225;-79
2024/01/27 14:18:38;;;;;;;4.07;1.40;;;;;;;;;;5032970;28;20647;-78
2024/01/27 14:21:06;;;;;;;6.37;1.70;;;;;;;;;;5033759;28;20190;-79
2024/01/27 14:23:33;;;;;;;1.70;1.03;;;;;;;;;;5024174;28;20225;-81
2024/01/27 14:26:00;;;;;;;1.70;1.00;;;;;;;;;;5032296;28;20191;-81
2024/01/27 14:28:30;;;;;;;3.23;1.20;;;;;;;;;;5031132;28;20209;-82
2024/01/27 14:31:00;;;;;;;3.27;1.33;;;;;;;;;;5030879;28;20353;-79
2024/01/27 14:33:28;;;;;;;2.00;1.10;;;;;;;;;;5029859;28;20206;-80
2024/01/27 14:35:58;;;;;;;3.07;1.13;;;;;;;;;;5030089;28;20269;-80
2024/01/27 14:38:27;;;;;;;2.90;1.10;;;;;;;;;;5030850;28;20198;-81
2024/01/27 14:40:55;;;;;;;4.13;1.50;;;;;;;;;;5031116;28;20678;-81
2024/01/27 14:43:22;;;;;;;2.10;1.17;;;;;;;;;;5031281;28;20308;-79
2024/01/27 14:45:51;;;;;;;1.70;1.40;;;;;;;;;;5030326;28;20240;-82
2024/01/27 14:48:19;;;;;;;4.27;1.50;;;;;;;;;;5012350;28;20388;-81
2024/01/27 14:50:54;;;;;;;2.60;1.20;;;;;;;;;;5028003;28;20286;-79
2024/01/27 14:53:22;;;;;;;2.97;1.20;;;;;;;;;;5044513;28;20300;-81
2024/01/27 14:55:51;;;;;;;3.10;1.13;;;;;;;;;;5050392;28;20193;-80